Time;durP1;ratioP1;P1;durP2;ratioP2;P2;SDS_P1;SDS_P2;PMS_P1;PMS_P2;Temp;Humidity;BMP_temperature;BMP_pressure;BME280_temperature;BME280_humidity;BME280_pressure;Samples;Min_cycle;Max_cycle;Signal;HPM_P1;HPM_P2
2022/11/07 00:00:10;;;;;;;2.30;1.90;;;;;;;;;;5091165;28;20793;-66
2022/11/07 00:02:37;;;;;;;0.93;0.77;;;;;;;;;;5091725;28;20471;-66
2022/11/07 00:05:04;;;;;;;1.93;0.87;;;;;;;;;;5090749;28;20457;-66
2022/11/07 00:07:31;;;;;;;2.37;0.70;;;;;;;;;;5090984;28;20801;-66
2022/11/07 00:09:58;;;;;;;2.53;1.17;;;;;;;;;;5091918;28;20442;-67
2022/11/07 00:12:25;;;;;;;1.20;0.90;;;;;;;;;;5090890;28;20457;-67
2022/11/07 00:14:52;;;;;;;2.80;1.03;;;;;;;;;;5090687;28;20913;-67
2022/11/07 00:17:21;;;;;;;2.13;0.77;;;;;;;;;;5090695;28;20461;-66
2022/11/07 00:19:49;;;;;;;1.97;1.33;;;;;;;;;;5091337;28;20572;-67
2022/11/07 00:22:16;;;;;;;1.37;0.83;;;;;;;;;;5090899;28;20488;-67
2022/11/07 00:24:43;;;;;;;1.10;0.80;;;;;;;;;;5090787;28;20451;-67
2022/11/07 00:27:10;;;;;;;1.60;0.63;;;10.60;1.00;;;;;;5089824;28;20461;-67
2022/11/07 00:29:36;;;;;;;0.90;0.70;;;10.20;99.90;;;;;;5090673;28;20450;-67
2022/11/07 00:32:03;;;;;;;1.10;0.90;;;10.30;99.90;;;;;;5090397;28;20454;-67
2022/11/07 00:34:34;;;;;;;1.00;0.60;;;10.30;92.50;;;;;;5090837;28;20450;-67
2022/11/07 00:37:01;;;;;;;1.30;1.03;;;10.40;70.30;;;;;;5090953;28;20449;-66
2022/11/07 00:39:27;;;;;;;2.50;0.70;;;10.30;99.90;;;;;;5090563;28;20474;-67
2022/11/07 00:41:54;;;;;;;1.10;0.80;;;10.30;99.90;;;;;;5090318;28;20483;-66
2022/11/07 00:44:21;;;;;;;1.43;1.00;;;10.40;99.90;;;;;;5089404;28;20494;-67
2022/11/07 00:46:48;;;;;;;1.10;0.70;;;10.40;99.90;;;;;;5090789;28;20454;-67
2022/11/07 00:49:15;;;;;;;4.43;1.23;;;10.50;99.90;;;;;;5084748;28;20502;-67
2022/11/07 00:51:43;;;;;;;1.47;0.80;;;10.50;99.90;;;;;;5090852;28;20448;-67
2022/11/07 00:54:10;;;;;;;1.17;0.90;;;10.50;99.90;;;;;;5084755;28;20451;-67
2022/11/07 00:56:37;;;;;;;1.07;0.77;;;10.30;99.90;;;;;;5090523;28;20786;-67
2022/11/07 00:59:04;;;;;;;2.77;1.50;;;10.30;99.90;;;;;;5089806;28;20450;-67
2022/11/07 01:01:32;;;;;;;1.80;1.03;;;10.20;99.90;;;;;;5090078;28;20967;-67
2022/11/07 01:06:46;;;;;;;1.60;1.07;;;10.10;99.90;;;;;;5090333;28;20458;-67
2022/11/07 01:09:15;;;;;;;1.20;1.00;;;9.90;99.90;;;;;;5089361;28;20463;-67
2022/11/07 01:11:42;;;;;;;1.43;1.17;;;9.80;99.90;;;;;;5090500;28;20447;-67
2022/11/07 01:14:10;;;;;;;2.50;1.27;;;9.90;99.90;;;;;;5089350;28;20453;-66
2022/11/07 01:16:38;;;;;;;3.10;1.10;;;9.90;99.90;;;;;;5090195;28;20441;-67
2022/11/07 01:19:06;;;;;;;0.97;0.73;;;10.10;99.90;;;;;;5093867;28;20461;-67
2022/11/07 01:21:33;;;;;;;1.60;0.97;;;10.20;99.90;;;;;;5094669;28;20460;-67
2022/11/07 01:24:02;;;;;;;2.23;1.10;;;10.30;99.90;;;;;;5093819;28;20492;-66
2022/11/07 01:26:29;;;;;;;1.20;0.80;;;10.30;99.90;;;;;;5094388;28;20449;-67
2022/11/07 01:28:56;;;;;;;2.07;0.83;;;10.20;99.90;;;;;;5094499;28;20781;-67
2022/11/07 01:31:23;;;;;;;1.73;0.83;;;10.20;99.90;;;;;;5083889;28;20457;-67
2022/11/07 01:33:50;;;;;;;3.77;0.90;;;10.10;99.90;;;;;;5093995;28;20462;-66
2022/11/07 01:36:18;;;;;;;4.20;1.10;;;10.00;99.90;;;;;;5089227;28;20462;-67
2022/11/07 01:38:47;;;;;;;1.60;1.00;;;9.90;99.90;;;;;;5093941;28;20461;-66
2022/11/07 01:41:21;;;;;;;1.40;0.63;;;9.80;99.90;;;;;;5080868;28;20801;-66
2022/11/07 01:43:52;;;;;;;1.67;1.00;;;9.80;99.90;;;;;;5093622;28;20493;-66
2022/11/07 01:46:19;;;;;;;1.53;0.90;;;9.80;99.90;;;;;;5093401;28;20445;-66
2022/11/07 01:48:53;;;;;;;1.43;0.70;;;9.70;99.90;;;;;;5094176;28;20477;-66
2022/11/07 01:51:21;;;;;;;2.03;0.90;;;9.60;99.90;;;;;;5093763;28;20931;-66
2022/11/07 01:53:49;;;;;;;1.20;0.90;;;9.60;99.90;;;;;;5093265;28;20543;-66
2022/11/07 01:56:21;;;;;;;1.17;0.73;;;9.60;99.90;;;;;;5093574;28;20445;-67
2022/11/07 01:58:48;;;;;;;1.33;0.93;;;9.50;99.90;;;;;;5093973;28;20472;-66
2022/11/07 02:01:16;;;;;;;1.00;0.83;;;9.50;99.90;;;;;;5093374;28;20537;-66
2022/11/07 02:03:43;;;;;;;1.10;0.70;;;9.40;99.90;;;;;;5092843;28;20476;-67
2022/11/07 02:06:16;;;;;;;2.43;0.90;;;9.50;99.90;;;;;;5093048;28;20445;-67
2022/11/07 02:08:44;;;;;;;1.53;0.80;;;9.50;99.90;;;;;;5089918;28;20445;-67
2022/11/07 02:11:13;;;;;;;1.50;0.73;;;9.60;99.90;;;;;;5093923;28;20453;-67
2022/11/07 02:13:41;;;;;;;1.20;0.73;;;9.60;99.90;;;;;;5093256;28;20448;-66
2022/11/07 02:16:08;;;;;;;4.30;0.80;;;9.80;99.90;;;;;;5093478;28;20459;-67
2022/11/07 02:18:37;;;;;;;1.43;0.90;;;9.70;99.90;;;;;;5094427;28;20461;-67
2022/11/07 02:21:11;;;;;;;1.10;0.70;;;9.60;99.90;;;;;;5094001;28;20441;-66
2022/11/07 02:23:46;;;;;;;1.47;1.20;;;9.70;99.90;;;;;;5092832;28;20560;-67
2022/11/07 02:26:14;;;;;;;1.70;0.90;;;9.60;99.90;;;;;;5093638;28;20440;-66
2022/11/07 02:28:42;;;;;;;2.10;0.80;;;9.70;99.90;;;;;;5092982;28;20508;-67
2022/11/07 02:31:09;;;;;;;1.23;0.77;;;9.70;99.90;;;;;;5093709;28;20449;-67
2022/11/07 02:33:35;;;;;;;2.80;1.00;;;9.80;99.90;;;;;;5092208;28;20450;-67
2022/11/07 02:36:03;;;;;;;1.53;0.70;;;9.80;99.90;;;;;;5093309;28;20497;-67
2022/11/07 02:38:34;;;;;;;0.90;0.70;;;9.90;99.90;;;;;;5093441;28;20535;-66
2022/11/07 02:41:04;;;;;;;1.80;1.10;;;10.00;99.90;;;;;;5093481;28;20446;-67
2022/11/07 02:43:34;;;;;;;1.53;0.80;;;9.90;99.90;;;;;;5092989;28;20470;-67
2022/11/07 02:46:05;;;;;;;1.80;0.90;;;9.90;99.90;;;;;;5093403;28;20521;-67
2022/11/07 02:48:40;;;;;;;0.90;0.60;;;10.00;99.90;;;;;;5092824;28;20486;-67
2022/11/07 02:51:07;;;;;;;1.97;1.20;;;10.10;99.90;;;;;;5092324;28;20934;-69
2022/11/07 02:53:33;;;;;;;1.30;0.93;;;10.10;99.90;;;;;;5092417;28;20459;-67
2022/11/07 02:56:00;;;;;;;1.40;0.80;;;10.00;99.90;;;;;;5092874;28;20977;-68
2022/11/07 02:58:27;;;;;;;1.53;0.97;;;10.00;99.90;;;;;;5092135;28;20450;-67
2022/11/07 03:00:55;;;;;;;2.37;0.90;;;10.00;99.90;;;;;;5092544;28;20459;-67
2022/11/07 03:03:22;;;;;;;1.40;1.30;;;10.00;99.90;;;;;;5091091;28;20477;-67
2022/11/07 03:05:49;;;;;;;1.03;0.80;;;10.00;99.90;;;;;;5092775;28;20449;-66
2022/11/07 03:08:16;;;;;;;1.40;0.90;;;10.10;99.90;;;;;;5092253;28;20450;-66
2022/11/07 03:10:42;;;;;;;2.20;0.83;;;10.10;99.90;;;;;;5092756;28;20446;-67
2022/11/07 03:13:09;;;;;;;2.00;1.47;;;10.10;99.90;;;;;;5091311;28;20461;-67
2022/11/07 03:15:36;;;;;;;1.27;0.97;;;10.20;99.90;;;;;;5092593;28;20450;-67
2022/11/07 03:18:05;;;;;;;1.30;0.83;;;10.20;99.90;;;;;;5091934;28;20461;-66
2022/11/07 03:20:31;;;;;;;1.20;0.97;;;10.30;99.90;;;;;;5092232;28;20452;-67
2022/11/07 03:22:58;;;;;;;1.57;0.90;;;10.30;99.90;;;;;;5091521;28;20478;-67
2022/11/07 03:25:25;;;;;;;2.70;1.23;;;10.40;99.90;;;;;;5091739;28;20448;-67
2022/11/07 03:27:52;;;;;;;1.60;1.30;;;10.40;99.90;;;;;;5092101;28;20498;-67
2022/11/07 03:30:18;;;;;;;1.77;1.00;;;10.50;99.90;;;;;;5091810;28;20523;-67
2022/11/07 03:32:45;;;;;;;2.40;1.20;;;10.50;99.90;;;;;;5091313;28;20950;-67
2022/11/07 03:35:13;;;;;;;2.10;1.23;;;10.40;99.90;;;;;;5091069;28;20460;-67
2022/11/07 03:37:40;;;;;;;1.20;1.00;;;10.50;99.90;;;;;;5091544;28;20449;-67
2022/11/07 03:40:08;;;;;;;1.30;1.20;;;10.50;99.90;;;;;;5090726;28;20463;-67
2022/11/07 03:42:39;;;;;;;1.87;0.90;;;10.50;99.90;;;;;;5090804;28;20951;-67
2022/11/07 03:45:07;;;;;;;2.73;1.50;;;10.50;99.90;;;;;;5091236;28;20444;-66
2022/11/07 03:47:35;;;;;;;2.73;0.90;;;10.50;99.90;;;;;;5091377;28;20456;-67
2022/11/07 03:50:03;;;;;;;1.80;1.07;;;10.60;99.90;;;;;;5092193;28;20766;-67
2022/11/07 03:52:31;;;;;;;1.20;0.90;;;10.60;99.90;;;;;;5091475;28;20570;-67
2022/11/07 03:54:57;;;;;;;1.23;0.80;;;10.60;99.90;;;;;;5092151;28;20449;-67
2022/11/07 03:57:24;;;;;;;1.03;0.80;;;10.60;99.90;;;;;;5090594;28;20459;-66
2022/11/07 03:59:51;;;;;;;1.93;1.00;;;10.60;99.90;;;;;;5091363;28;20456;-67
2022/11/07 04:02:19;;;;;;;1.20;0.90;;;10.50;99.90;;;;;;5090706;28;20498;-67
2022/11/07 04:04:46;;;;;;;1.30;0.70;;;10.50;99.90;;;;;;5090630;28;20495;-66
2022/11/07 04:07:12;;;;;;;1.13;0.77;;;10.50;99.90;;;;;;5090601;28;20452;-67
2022/11/07 04:09:41;;;;;;;2.63;1.33;;;10.50;99.90;;;;;;5091433;28;20805;-66
2022/11/07 04:17:37;;;;;;;1.40;0.97;;;10.40;99.90;;;;;;5090877;28;20454;-66
2022/11/07 04:20:05;;;;;;;1.23;0.83;;;10.40;99.90;;;;;;5090763;28;20452;-67
2022/11/07 04:22:32;;;;;;;1.07;0.77;;;10.50;99.90;;;;;;5090513;28;20938;-67
2022/11/07 04:25:00;;;;;;;1.60;1.00;;;10.40;99.90;;;;;;5090834;28;20457;-67
2022/11/07 04:27:41;;;;;;;1.23;0.77;;;10.40;99.90;;;;;;5090304;28;20453;-67
2022/11/07 04:30:21;;;;;;;1.80;1.20;;;10.40;99.90;;;;;;5089793;28;21040;-67
2022/11/07 04:32:49;;;;;;;1.63;0.97;;;10.30;99.90;;;;;;5090516;28;20945;-67
2022/11/07 04:35:16;;;;;;;1.10;0.80;;;10.30;99.90;;;;;;5086110;28;20448;-67
2022/11/07 04:37:43;;;;;;;1.37;0.97;;;10.30;99.90;;;;;;5091140;28;20448;-67
2022/11/07 04:40:12;;;;;;;1.50;1.00;;;10.40;99.90;;;;;;5090739;28;20448;-67
2022/11/07 04:42:40;;;;;;;1.90;1.47;;;10.40;99.90;;;;;;5090071;28;20455;-67
2022/11/07 04:45:08;;;;;;;1.50;0.80;;;10.30;99.90;;;;;;5090662;28;20854;-67
2022/11/07 04:47:35;;;;;;;2.40;1.30;;;10.20;99.90;;;;;;5090448;28;20473;-67
2022/11/07 04:50:02;;;;;;;1.27;0.97;;;10.10;99.90;;;;;;5091716;28;20546;-67
2022/11/07 04:52:28;;;;;;;1.83;1.33;;;10.00;99.90;;;;;;5087050;28;20530;-67
2022/11/07 04:54:55;;;;;;;1.23;1.13;;;10.10;99.90;;;;;;5090681;28;20452;-67
2022/11/07 04:57:23;;;;;;;2.30;1.10;;;10.10;99.90;;;;;;5088576;28;21022;-67
2022/11/07 04:59:50;;;;;;;2.20;1.10;;;10.10;99.90;;;;;;5090413;28;20447;-67
2022/11/07 05:02:17;;;;;;;4.20;0.90;;;10.10;99.90;;;;;;5090644;28;20799;-67
2022/11/07 05:04:44;;;;;;;1.70;1.60;;;10.10;99.90;;;;;;5090776;28;20482;-68
2022/11/07 05:07:10;;;;;;;1.53;1.27;;;10.00;99.90;;;;;;5090756;28;20452;-67
2022/11/07 05:09:37;;;;;;;1.70;1.20;;;10.00;99.90;;;;;;5091164;28;20447;-67
2022/11/07 05:12:04;;;;;;;1.20;1.10;;;9.90;99.90;;;;;;5090243;28;20451;-67
2022/11/07 05:14:34;;;;;;;1.97;1.07;;;9.90;99.90;;;;;;5090128;28;20454;-68
2022/11/07 05:17:03;;;;;;;5.83;1.30;;;9.80;99.90;;;;;;5090814;28;20448;-68
2022/11/07 05:19:30;;;;;;;2.47;1.20;;;9.90;99.90;;;;;;5085921;28;20453;-68
2022/11/07 05:24:38;;;;;;;1.70;0.93;;;9.80;99.90;;;;;;5086612;28;20506;-66
2022/11/07 05:27:05;;;;;;;2.03;1.00;;;9.80;99.90;;;;;;5084707;28;20935;-67
2022/11/07 05:29:34;;;;;;;2.40;1.20;;;9.50;99.90;;;;;;5088314;28;20449;-67
2022/11/07 05:32:00;;;;;;;2.10;0.83;;;9.50;99.90;;;;;;5090854;28;20446;-67
2022/11/07 05:34:27;;;;;;;3.10;1.43;;;9.40;99.90;;;;;;5089682;28;20827;-67
2022/11/07 05:36:54;;;;;;;1.80;1.00;;;9.30;99.90;;;;;;5090784;28;20449;-67
2022/11/07 05:39:22;;;;;;;1.37;0.90;;;9.30;99.90;;;;;;5087858;28;20452;-68
2022/11/07 05:41:49;;;;;;;2.40;1.07;;;9.20;99.90;;;;;;5090505;28;20453;-68
2022/11/07 05:44:15;;;;;;;1.30;1.00;;;9.30;99.90;;;;;;5089470;28;20495;-68
2022/11/07 05:46:44;;;;;;;3.07;1.40;;;9.30;99.90;;;;;;5090875;28;20440;-68
2022/11/07 05:49:10;;;;;;;1.60;1.20;;;9.30;99.90;;;;;;5089722;28;20476;-68
2022/11/07 05:51:37;;;;;;;1.10;0.70;;;9.30;99.90;;;;;;5090814;28;20468;-68
2022/11/07 05:54:04;;;;;;;2.60;1.07;;;9.30;99.90;;;;;;5090171;28;20442;-68
2022/11/07 05:56:31;;;;;;;1.40;1.00;;;9.30;99.90;;;;;;5090682;28;21052;-68
2022/11/07 05:58:58;;;;;;;1.27;0.90;;;9.40;99.90;;;;;;5090493;28;20453;-68
2022/11/07 06:01:25;;;;;;;2.50;1.03;;;9.20;99.90;;;;;;5090080;28;20449;-68
2022/11/07 06:03:53;;;;;;;2.77;1.57;;;9.30;99.90;;;;;;5078670;28;20480;-68
2022/11/07 06:06:19;;;;;;;2.97;1.30;;;9.30;99.90;;;;;;5094000;28;20455;-68
2022/11/07 06:08:46;;;;;;;1.23;0.90;;;9.30;99.90;;;;;;5093951;28;20929;-68
2022/11/07 06:11:13;;;;;;;2.13;1.17;;;9.30;99.90;;;;;;5093507;28;20452;-68
2022/11/07 06:13:40;;;;;;;2.37;1.43;;;9.40;99.90;;;;;;5094568;28;20451;-68
2022/11/07 06:16:07;;;;;;;2.13;1.10;;;9.40;99.90;;;;;;5093803;28;20457;-68
2022/11/07 06:18:36;;;;;;;2.13;1.00;;;9.30;99.90;;;;;;5093737;28;20838;-68
2022/11/07 06:21:04;;;;;;;2.00;1.30;;;9.30;99.90;;;;;;5094085;28;20481;-68
2022/11/07 06:23:31;;;;;;;1.80;1.40;;;9.30;99.90;;;;;;5094435;28;20481;-68
2022/11/07 06:25:58;;;;;;;1.43;1.30;;;9.30;99.90;;;;;;5094217;28;20452;-68
2022/11/07 06:28:25;;;;;;;3.23;1.17;;;9.30;99.90;;;;;;5092762;28;20543;-68
2022/11/07 06:30:52;;;;;;;4.30;2.10;;;9.30;99.90;;;;;;5094063;28;20539;-68
2022/11/07 06:33:19;;;;;;;1.50;1.10;;;9.30;99.90;;;;;;5093167;28;20438;-68
2022/11/07 06:35:46;;;;;;;3.10;1.20;;;9.30;99.90;;;;;;5093989;28;20451;-68
2022/11/07 06:38:15;;;;;;;2.17;1.50;;;9.50;99.90;;;;;;5092876;28;20528;-68
2022/11/07 06:40:42;;;;;;;2.67;1.57;;;9.50;99.90;;;;;;5093793;28;20452;-68
2022/11/07 06:43:11;;;;;;;2.07;1.40;;;9.40;99.90;;;;;;5093218;28;20470;-68
2022/11/07 06:45:38;;;;;;;1.73;1.30;;;9.40;99.90;;;;;;5093649;28;20822;-67
2022/11/07 06:48:05;;;;;;;2.90;1.20;;;9.40;99.90;;;;;;5092143;28;20559;-68
2022/11/07 06:50:33;;;;;;;2.03;1.27;;;9.30;99.90;;;;;;5093400;28;20449;-68
2022/11/07 06:53:04;;;;;;;1.23;1.13;;;9.30;99.90;;;;;;5093639;28;20450;-68
2022/11/07 06:55:33;;;;;;;2.47;1.27;;;9.30;99.90;;;;;;5093766;28;20792;-68
2022/11/07 06:58:01;;;;;;;1.23;0.90;;;9.40;99.90;;;;;;5093290;28;20797;-68
2022/11/07 07:00:29;;;;;;;1.80;1.13;;;9.60;99.90;;;;;;5093284;28;20466;-68
2022/11/07 07:02:55;;;;;;;2.77;1.50;;;9.60;99.90;;;;;;5093299;28;20478;-68
2022/11/07 07:05:22;;;;;;;2.10;1.63;;;9.60;99.90;;;;;;5092782;28;20872;-68
2022/11/07 07:07:49;;;;;;;4.23;2.27;;;9.70;99.90;;;;;;5093429;28;20473;-68
2022/11/07 07:10:16;;;;;;;2.53;1.83;;;9.70;99.90;;;;;;5092426;28;20451;-68
2022/11/07 07:12:45;;;;;;;2.90;1.60;;;9.80;99.90;;;;;;5093454;28;20800;-68
2022/11/07 07:15:11;;;;;;;1.87;1.30;;;9.90;99.90;;;;;;5078623;28;20463;-68
2022/11/07 07:17:38;;;;;;;1.03;0.90;;;9.90;99.90;;;;;;5093139;28;20466;-68
2022/11/07 07:20:06;;;;;;;1.63;1.30;;;9.80;99.90;;;;;;5092176;28;20461;-68
2022/11/07 07:22:33;;;;;;;2.07;1.50;;;9.90;99.90;;;;;;5093171;28;20455;-68
2022/11/07 07:25:00;;;;;;;3.20;2.27;;;;;;;;;;5093185;28;20483;-68
2022/11/07 07:27:27;;;;;;;3.20;1.87;;;;;;;;;;5092188;28;20811;-68
2022/11/07 07:29:55;;;;;;;4.30;2.20;;;;;;;;;;5092562;28;20451;-68
2022/11/07 07:32:23;;;;;;;4.20;3.23;;;;;;;;;;5092165;28;20463;-68
2022/11/07 07:34:51;;;;;;;6.50;2.47;;;;;;;;;;5093264;28;20463;-68
2022/11/07 07:37:18;;;;;;;4.13;2.50;;;;;;;;;;5092163;28;20451;-68
2022/11/07 07:39:45;;;;;;;5.13;1.90;;;;;;;;;;5092135;28;20461;-68
2022/11/07 07:42:12;;;;;;;2.87;2.17;;;;;;;;;;5092088;28;20448;-68
2022/11/07 07:44:39;;;;;;;3.37;2.23;;;9.90;99.90;;;;;;5092442;28;20490;-68
2022/11/07 07:47:07;;;;;;;4.37;2.70;;;10.70;99.90;;;;;;5091484;28;20455;-68
2022/11/07 07:49:34;;;;;;;3.43;2.87;;;10.60;99.90;;;;;;5092321;28;20484;-68
2022/11/07 07:52:01;;;;;;;2.83;2.07;;;11.00;99.90;;;;;;5092166;28;20962;-68
2022/11/07 07:54:28;;;;;;;2.70;2.40;;;10.80;99.90;;;;;;5092265;28;20796;-68
2022/11/07 07:56:54;;;;;;;2.90;2.67;;;10.70;99.90;;;;;;5092021;28;20522;-68
2022/11/07 07:59:21;;;;;;;2.53;1.83;;;10.70;99.90;;;;;;5090990;28;20932;-68
2022/11/07 08:01:48;;;;;;;2.97;2.17;;;10.70;99.90;;;;;;5092151;28;20441;-68
2022/11/07 08:04:16;;;;;;;7.13;2.00;;;10.70;99.90;;;;;;5091335;28;20567;-68
2022/11/07 08:06:43;;;;;;;2.10;1.50;;;10.90;99.90;;;;;;5092095;28;20445;-68
2022/11/07 08:09:10;;;;;;;2.17;1.37;;;11.00;99.90;;;;;;5091035;28;20460;-68
2022/11/07 08:11:36;;;;;;;5.33;1.67;;;11.30;99.90;;;;;;5092056;28;20478;-68
2022/11/07 08:14:03;;;;;;;2.60;1.40;;;11.50;99.90;;;;;;5091567;28;20456;-68
2022/11/07 08:16:30;;;;;;;2.67;1.73;;;11.70;99.90;;;;;;5092228;28;20449;-68
2022/11/07 08:18:57;;;;;;;1.47;1.33;;;11.90;99.90;;;;;;5091650;28;20970;-68
2022/11/07 08:21:25;;;;;;;2.17;1.30;;;11.90;99.90;;;;;;5091178;28;20445;-68
2022/11/07 08:23:53;;;;;;;2.30;1.10;;;12.00;67.50;;;;;;5091804;28;20445;-68
2022/11/07 08:26:20;;;;;;;3.43;1.40;;;12.40;99.90;;;;;;5091031;28;20472;-68
2022/11/07 08:28:47;;;;;;;2.00;1.40;;;12.60;1.00;;;;;;5090692;28;20445;-68
2022/11/07 08:31:14;;;;;;;4.10;1.60;;;12.90;1.00;;;;;;5091115;28;20445;-68
2022/11/07 08:33:41;;;;;;;7.87;2.07;;;13.10;99.90;;;;;;5091686;28;20497;-68
2022/11/07 08:36:08;;;;;;;3.37;1.20;;;13.10;99.90;;;;;;5091090;28;20452;-69
2022/11/07 08:38:37;;;;;;;1.53;0.90;;;13.10;99.90;;;;;;5091236;28;20437;-69
2022/11/07 08:41:05;;;;;;;4.10;1.10;;;13.00;99.90;;;;;;5090982;28;20445;-68
2022/11/07 08:43:31;;;;;;;3.87;1.33;;;13.20;1.80;;;;;;5091695;28;20455;-67
2022/11/07 08:45:58;;;;;;;7.40;2.10;;;12.90;99.90;;;;;;5091798;28;20485;-68
2022/11/07 08:48:25;;;;;;;3.67;1.20;;;12.90;83.20;;;;;;5090194;28;20495;-68
2022/11/07 08:50:53;;;;;;;4.03;1.43;;;12.90;1.00;;;;;;5091070;28;20467;-68
2022/11/07 08:53:20;;;;;;;7.53;4.03;;;13.30;99.90;;;;;;5090375;28;20453;-68
2022/11/07 08:55:48;;;;;;;2.60;1.20;;;13.30;99.90;;;;;;5091313;28;20480;-68
2022/11/07 08:58:15;;;;;;;1.80;1.47;;;13.40;99.90;;;;;;5089971;28;20444;-68
2022/11/07 09:00:42;;;;;;;1.27;1.03;;;13.70;1.00;;;;;;5091375;28;20451;-68
2022/11/07 09:03:10;;;;;;;3.83;1.10;;;13.50;1.00;;;;;;5090377;28;20931;-68
2022/11/07 09:05:38;;;;;;;2.40;1.20;;;13.50;99.90;;;;;;5091214;28;20481;-68
2022/11/07 09:08:05;;;;;;;3.00;1.00;;;13.40;1.00;;;;;;5090275;28;20449;-68
2022/11/07 09:10:32;;;;;;;2.67;0.97;;;13.50;99.90;;;;;;5091388;28;20488;-68
2022/11/07 09:13:00;;;;;;;5.73;1.10;;;13.40;99.90;;;;;;5091002;28;20441;-68
2022/11/07 09:15:27;;;;;;;1.00;0.77;;;13.40;99.90;;;;;;5090565;28;20455;-68
2022/11/07 09:17:54;;;;;;;3.00;1.80;;;13.50;1.00;;;;;;5090633;28;20469;-68
2022/11/07 09:20:21;;;;;;;0.83;0.63;;;13.60;99.90;;;;;;5090251;28;20455;-68
2022/11/07 09:22:48;;;;;;;1.80;0.80;;;13.60;1.00;;;;;;5090986;28;20697;-68
2022/11/07 09:25:15;;;;;;;2.33;0.97;;;13.80;99.90;;;;;;5090450;28;20567;-68
2022/11/07 09:27:42;;;;;;;7.90;1.40;;;13.90;99.90;;;;;;5090547;28;20441;-68
2022/11/07 09:30:12;;;;;;;1.50;1.23;;;13.70;99.90;;;;;;5090520;28;20807;-68
2022/11/07 09:32:38;;;;;;;1.50;1.00;;;13.60;1.00;;;;;;5090929;28;20447;-68
2022/11/07 09:35:07;;;;;;;6.30;1.40;;;13.50;99.90;;;;;;5090317;28;20619;-68
2022/11/07 09:37:33;;;;;;;1.13;0.83;;;13.40;99.90;;;;;;5090885;28;20567;-68
2022/11/07 09:40:00;;;;;;;2.50;0.97;;;13.50;99.90;;;;;;5094179;28;20448;-68
2022/11/07 09:42:39;;;;;;;2.60;0.73;;;13.50;57.40;;;;;;5093947;28;20453;-68
2022/11/07 09:45:13;;;;;;;3.03;0.80;;;13.60;1.00;;;;;;5093986;28;20475;-68
2022/11/07 09:47:44;;;;;;;1.10;0.70;;;13.70;99.90;;;;;;5094105;28;20464;-69
2022/11/07 09:50:14;;;;;;;2.03;1.03;;;13.60;1.00;;;;;;5094286;28;20447;-69
2022/11/07 09:52:47;;;;;;;1.80;0.90;;;13.60;99.90;;;;;;5094799;28;20454;-69
2022/11/07 09:55:17;;;;;;;2.40;1.40;;;13.60;99.90;;;;;;5094098;28;20448;-68
2022/11/07 09:57:45;;;;;;;1.07;0.80;;;13.70;99.90;;;;;;5094496;28;20441;-69
2022/11/07 10:00:16;;;;;;;2.70;1.47;;;13.80;1.00;;;;;;5093976;28;20530;-69
2022/11/07 10:02:46;;;;;;;2.20;0.80;;;13.80;29.40;;;;;;5094560;28;20440;-68
2022/11/07 10:05:16;;;;;;;2.97;1.00;;;13.70;1.00;;;;;;5093726;28;20484;-69
2022/11/07 10:07:54;;;;;;;2.97;1.43;;;13.80;1.00;;;;;;5094804;28;20449;-68
2022/11/07 10:10:30;;;;;;;5.80;1.33;;;13.90;1.00;;;;;;5081367;28;20436;-68
2022/11/07 10:13:35;;;;;;;2.07;0.90;;;13.80;1.00;;;;;;5095557;28;20433;-68
2022/11/07 10:16:12;;;;;;;7.60;1.03;;;13.90;1.00;;;;;;5096130;28;20448;-68
2022/11/07 10:18:55;;;;;;;1.23;0.60;;;13.90;1.00;;;;;;5084321;28;20462;-68
2022/11/07 10:21:29;;;;;;;2.10;0.90;;;14.00;99.90;;;;;;5095619;28;20447;-68
2022/11/07 10:24:21;;;;;;;2.80;1.10;;;13.90;99.90;;;;;;5096748;28;20930;-68
2022/11/07 10:26:47;;;;;;;1.30;0.80;;;14.00;1.00;;;;;;5085345;28;20455;-68
2022/11/07 10:29:16;;;;;;;4.87;1.00;;;14.00;1.00;;;;;;5096741;28;20943;-68
2022/11/07 10:31:50;;;;;;;3.60;1.17;;;14.10;99.90;;;;;;5098362;28;20449;-70
2022/11/07 10:34:22;;;;;;;1.83;0.73;;;14.10;1.00;;;;;;5097450;28;20634;-68
2022/11/07 10:36:50;;;;;;;1.47;0.70;;;14.10;99.90;;;;;;5097728;28;20446;-68
2022/11/07 10:39:19;;;;;;;1.50;0.87;;;14.20;99.90;;;;;;5094164;28;20452;-68
2022/11/07 10:41:52;;;;;;;2.70;1.10;;;14.10;1.00;;;;;;5093933;28;20444;-68
2022/11/07 10:44:24;;;;;;;5.30;0.90;;;14.30;99.90;;;;;;5092805;28;20459;-68
2022/11/07 10:46:52;;;;;;;1.70;0.70;;;14.30;21.10;;;;;;5093969;28;20445;-68
2022/11/07 10:49:21;;;;;;;2.60;0.93;;;14.30;1.00;;;;;;5092051;28;20481;-68
2022/11/07 10:51:49;;;;;;;1.10;0.70;;;14.30;99.90;;;;;;5092925;28;20453;-68
2022/11/07 10:54:20;;;;;;;2.53;1.03;;;14.20;99.90;;;;;;5092939;28;20948;-68
2022/11/07 10:56:50;;;;;;;1.00;0.73;;;14.30;99.90;;;;;;5093626;28;20451;-69
2022/11/07 10:59:25;;;;;;;2.00;0.90;;;14.30;99.00;;;;;;5092248;28;20460;-68
2022/11/07 11:01:55;;;;;;;1.40;0.70;;;14.50;22.70;;;;;;5093452;28;20444;-68
2022/11/07 11:04:23;;;;;;;4.70;1.00;;;14.60;1.00;;;;;;5092860;28;20449;-68
2022/11/07 11:06:57;;;;;;;1.30;0.80;;;14.60;1.00;;;;;;5093241;28;20812;-68
2022/11/07 11:09:29;;;;;;;1.40;1.03;;;14.60;1.00;;;;;;5092410;28;20780;-68
2022/11/07 11:11:56;;;;;;;5.37;0.93;;;14.60;1.00;;;;;;5093337;28;20509;-68
2022/11/07 11:14:24;;;;;;;4.30;1.77;;;14.60;1.00;;;;;;5092351;28;20772;-68
2022/11/07 11:16:55;;;;;;;2.70;0.90;;;14.60;1.00;;;;;;5093308;28;20785;-68
2022/11/07 11:19:25;;;;;;;1.73;1.00;;;14.80;1.00;;;;;;5092245;28;20800;-68
2022/11/07 11:21:54;;;;;;;1.53;0.93;;;14.70;1.00;;;;;;5092824;28;20448;-69
2022/11/07 11:24:41;;;;;;;2.30;0.90;;;14.90;1.00;;;;;;5092584;28;20444;-68
2022/11/07 11:27:15;;;;;;;2.23;0.70;;;14.90;1.00;;;;;;5086176;28;20457;-68
2022/11/07 11:29:50;;;;;;;1.97;0.87;;;14.90;1.00;;;;;;5092433;28;20456;-68
2022/11/07 11:32:24;;;;;;;2.63;1.00;;;14.90;1.00;;;;;;5092307;28;20440;-68
2022/11/07 11:35:00;;;;;;;3.60;1.00;;;15.10;1.00;;;;;;5092686;28;20532;-69
2022/11/07 11:37:27;;;;;;;1.50;0.80;;;15.20;1.00;;;;;;5091615;28;21007;-69
2022/11/07 11:40:08;;;;;;;1.10;0.60;;;15.50;1.00;;;;;;5092659;28;20448;-68
2022/11/07 11:42:43;;;;;;;2.20;0.80;;;15.40;1.00;;;;;;5092727;28;20791;-68
2022/11/07 11:45:17;;;;;;;0.83;0.60;;;15.50;1.00;;;;;;5092003;28;20480;-68
2022/11/07 11:47:54;;;;;;;2.30;0.70;;;15.60;1.00;;;;;;5079074;28;21300;-68
2022/11/07 11:50:27;;;;;;;0.97;0.67;;;15.40;1.00;;;;;;5091904;28;20440;-68
2022/11/07 11:52:54;;;;;;;4.63;1.43;;;15.40;1.00;;;;;;5092577;28;20455;-68
2022/11/07 11:55:27;;;;;;;1.40;1.00;;;15.30;1.00;;;;;;5091864;28;20456;-68
2022/11/07 11:58:02;;;;;;;1.73;0.50;;;15.60;1.00;;;;;;5091973;28;20452;-69
2022/11/07 12:00:36;;;;;;;1.60;0.80;;;15.60;1.00;;;;;;5092381;28;20432;-68
2022/11/07 12:03:22;;;;;;;0.80;0.60;;;15.50;99.90;;;;;;5085776;28;20441;-69
2022/11/07 12:06:09;;;;;;;1.93;1.00;;;15.50;99.90;;;;;;5081377;28;20543;-68
2022/11/07 12:09:04;;;;;;;3.13;1.37;;;15.40;99.90;;;;;;5077794;28;20456;-68
2022/11/07 12:11:40;;;;;;;2.60;0.60;;;15.60;99.90;;;;;;5078147;28;20464;-68
2022/11/07 12:14:25;;;;;;;0.93;0.53;;;15.80;99.90;;;;;;5091197;28;20448;-68
2022/11/07 12:16:58;;;;;;;2.37;0.60;;;15.70;99.90;;;;;;5078915;28;20452;-68
2022/11/07 12:19:31;;;;;;;5.90;1.07;;;15.90;99.90;;;;;;5091269;28;20459;-68
2022/11/07 12:22:06;;;;;;;2.53;1.00;;;16.00;99.90;;;;;;5092279;28;20445;-68
2022/11/07 12:24:42;;;;;;;0.90;0.60;;;16.00;99.90;;;;;;5091882;28;20444;-68
2022/11/07 12:27:20;;;;;;;1.73;0.80;;;15.80;99.90;;;;;;5091345;28;20488;-68
2022/11/07 12:30:03;;;;;;;1.80;1.07;;;15.80;99.90;;;;;;5091233;28;20517;-69
2022/11/07 12:32:41;;;;;;;0.70;0.60;;;15.90;99.90;;;;;;5091482;28;20445;-69
2022/11/07 12:35:34;;;;;;;2.97;1.10;;;15.90;99.90;;;;;;5090889;28;20961;-69
2022/11/07 12:38:17;;;;;;;2.53;0.80;;;15.80;99.90;;;;;;5078694;28;20793;-69
2022/11/07 12:40:56;;;;;;;1.47;0.77;;;15.80;99.90;;;;;;5091294;28;20447;-69
2022/11/07 12:43:37;;;;;;;1.10;0.93;;;15.70;99.90;;;;;;5091115;28;20733;-69
2022/11/07 12:46:11;;;;;;;2.60;0.90;;;15.80;99.90;;;;;;5077882;28;20479;-68
2022/11/07 12:49:04;;;;;;;2.30;0.80;;;15.90;99.90;;;;;;5090912;28;20483;-68
2022/11/07 12:51:46;;;;;;;4.77;1.10;;;16.00;99.90;;;;;;5060783;28;20464;-69
2022/11/07 12:54:38;;;;;;;1.13;0.70;;;16.00;99.90;;;;;;5077749;28;20437;-69
2022/11/07 12:57:13;;;;;;;4.90;0.97;;;16.00;99.90;;;;;;5090871;28;20451;-69
2022/11/07 12:59:44;;;;;;;1.30;0.70;;;16.10;99.90;;;;;;5090936;28;20455;-70
2022/11/07 13:02:23;;;;;;;3.03;1.70;;;15.90;99.90;;;;;;5090381;28;20445;-69
2022/11/07 13:04:55;;;;;;;1.10;0.80;;;15.90;99.90;;;;;;5091317;28;20440;-69
2022/11/07 13:07:28;;;;;;;3.50;0.70;;;15.80;99.90;;;;;;5090322;28;20440;-69
2022/11/07 13:10:04;;;;;;;1.63;0.80;;;15.80;99.90;;;;;;5091264;28;20527;-69
2022/11/07 13:12:36;;;;;;;1.37;0.83;;;15.80;99.90;;;;;;5091057;28;20441;-69
2022/11/07 13:15:04;;;;;;;1.77;0.70;;;15.70;99.90;;;;;;5090969;28;20441;-69
2022/11/07 13:17:39;;;;;;;1.40;0.87;;;15.60;99.90;;;;;;5090821;28;20459;-69
2022/11/07 13:20:22;;;;;;;4.27;1.53;;;15.70;99.90;;;;;;5090397;28;20441;-69